createdAt,value
2019-05-16T00:01:09.363Z,3.37
2019-05-16T00:03:39.275Z,3.27
2019-05-16T00:06:08.796Z,2.87
2019-05-16T00:08:38.836Z,4.10
2019-05-16T00:11:08.549Z,4.90
2019-05-16T00:13:38.367Z,4.70
2019-05-16T00:16:08.114Z,3.10
2019-05-16T00:18:38.873Z,5.00
2019-05-16T00:21:08.817Z,4.27
2019-05-16T00:23:38.553Z,4.80
2019-05-16T00:26:07.968Z,3.23
2019-05-16T00:28:37.988Z,3.83
2019-05-16T00:31:08.654Z,3.93
2019-05-16T00:33:38.111Z,3.30
2019-05-16T00:36:09.259Z,5.57
2019-05-16T00:38:38.336Z,3.77
2019-05-16T00:41:08.676Z,2.87
2019-05-16T00:43:38.181Z,4.40
2019-05-16T00:46:08.273Z,6.60
2019-05-16T00:48:38.172Z,6.90
2019-05-16T00:51:07.940Z,5.23
2019-05-16T00:53:38.292Z,4.73
2019-05-16T00:56:08.024Z,5.83
2019-05-16T00:58:38.302Z,3.97
2019-05-16T01:01:08.572Z,6.50
2019-05-16T01:03:38.007Z,4.77
2019-05-16T01:06:16.633Z,6.63
2019-05-16T01:08:38.642Z,4.47
2019-05-16T01:11:08.363Z,4.33
2019-05-16T01:13:38.081Z,4.07
2019-05-16T01:16:08.593Z,5.10
2019-05-16T01:18:38.114Z,4.33
2019-05-16T01:21:07.877Z,5.20
2019-05-16T01:23:38.871Z,5.60
2019-05-16T01:26:08.235Z,6.23
2019-05-16T01:28:37.904Z,4.47
2019-05-16T01:31:08.642Z,4.10
2019-05-16T01:33:38.575Z,4.60
2019-05-16T01:36:09.019Z,4.77
2019-05-16T01:38:39.084Z,4.43
2019-05-16T01:41:08.868Z,4.30
2019-05-16T01:43:38.229Z,5.40
2019-05-16T01:46:08.405Z,4.90
2019-05-16T01:48:38.265Z,6.37
2019-05-16T01:51:07.924Z,5.23
2019-05-16T01:53:39.502Z,5.83
2019-05-16T01:56:08.635Z,5.17
2019-05-16T01:58:38.282Z,5.77
2019-05-16T02:01:13.094Z,5.73
2019-05-16T02:03:38.820Z,6.07
2019-05-16T02:06:08.853Z,8.27
2019-05-16T02:08:38.813Z,4.63
2019-05-16T02:11:08.582Z,4.67
2019-05-16T02:13:39.062Z,4.57
2019-05-16T02:16:08.677Z,5.77
2019-05-16T02:18:38.333Z,4.60
2019-05-16T02:21:07.869Z,7.17
2019-05-16T02:23:38.184Z,6.23
2019-05-16T02:26:07.991Z,4.90
2019-05-16T02:28:40.805Z,6.17
2019-05-16T02:31:12.026Z,5.17
2019-05-16T02:33:40.822Z,4.60
2019-05-16T02:36:10.998Z,5.40
2019-05-16T02:38:42.291Z,6.13
2019-05-16T02:41:11.355Z,4.97
2019-05-16T02:43:42.023Z,5.17
2019-05-16T02:46:12.293Z,6.83
2019-05-16T02:48:42.036Z,5.73
2019-05-16T02:51:11.348Z,5.00
2019-05-16T02:53:41.678Z,6.20
2019-05-16T02:56:12.316Z,5.07
2019-05-16T02:58:44.963Z,5.27
2019-05-16T03:01:12.968Z,5.60
2019-05-16T03:03:44.028Z,7.53
2019-05-16T03:06:14.847Z,6.37
2019-05-16T03:08:46.497Z,6.37
2019-05-16T03:11:16.252Z,5.87
2019-05-16T03:13:51.097Z,8.67
2019-05-16T03:16:22.215Z,6.03
2019-05-16T03:18:54.021Z,5.80
2019-05-16T03:21:25.230Z,5.00
2019-05-16T03:23:54.462Z,5.83
2019-05-16T03:26:23.766Z,6.17
2019-05-16T03:28:53.010Z,6.23
2019-05-16T03:31:24.531Z,6.07
2019-05-16T03:33:59.850Z,9.40
2019-05-16T03:36:25.668Z,6.40
2019-05-16T03:38:54.986Z,7.63
2019-05-16T03:41:24.143Z,6.87
2019-05-16T03:43:53.287Z,6.93
2019-05-16T03:46:22.436Z,7.20
2019-05-16T03:48:52.081Z,8.30
2019-05-16T03:51:22.010Z,9.73
2019-05-16T03:53:51.435Z,9.80
2019-05-16T03:56:21.927Z,7.97
2019-05-16T03:58:51.900Z,8.20
2019-05-16T04:01:21.465Z,8.63
2019-05-16T04:03:51.541Z,9.73
2019-05-16T04:06:22.110Z,9.07
2019-05-16T04:08:51.546Z,7.17
2019-05-16T04:11:23.273Z,7.30
2019-05-16T04:13:52.393Z,7.23
2019-05-16T04:16:21.712Z,6.80
2019-05-16T04:18:51.616Z,7.47
2019-05-16T04:21:22.070Z,7.23
2019-05-16T04:23:51.967Z,7.80
2019-05-16T04:26:21.880Z,8.10
2019-05-16T04:28:51.772Z,7.23
2019-05-16T04:31:22.242Z,6.13
2019-05-16T04:33:51.881Z,9.00
2019-05-16T04:36:21.748Z,9.17
2019-05-16T04:38:51.576Z,6.77
2019-05-16T04:41:21.463Z,6.93
2019-05-16T04:43:51.107Z,7.67
2019-05-16T04:46:21.694Z,6.70
2019-05-16T04:48:51.387Z,6.23
2019-05-16T04:51:22.048Z,8.37
2019-05-16T04:53:52.016Z,7.43
2019-05-16T04:56:21.893Z,7.80
2019-05-16T04:58:51.721Z,6.73
2019-05-16T05:01:21.642Z,7.97
2019-05-16T05:04:02.115Z,7.83
2019-05-16T05:06:22.104Z,6.50
2019-05-16T05:08:58.424Z,7.10
2019-05-16T05:11:22.426Z,14.53
2019-05-16T05:13:52.020Z,8.13
2019-05-16T05:16:21.662Z,9.80
2019-05-16T05:18:51.531Z,7.53
2019-05-16T05:21:21.203Z,10.13
2019-05-16T05:23:51.471Z,7.20
2019-05-16T05:26:20.651Z,9.33
2019-05-16T05:28:50.841Z,7.90
2019-05-16T05:31:24.611Z,9.37
2019-05-16T05:33:51.521Z,9.27
2019-05-16T05:36:21.211Z,10.40
2019-05-16T05:39:06.306Z,7.90
2019-05-16T05:41:21.869Z,7.17
2019-05-16T05:43:54.111Z,10.03
2019-05-16T05:46:22.411Z,8.53
2019-05-16T05:48:51.587Z,9.13
2019-05-16T05:51:20.890Z,8.33
2019-05-16T05:53:51.065Z,7.73
2019-05-16T05:56:20.747Z,8.17
2019-05-16T05:58:51.150Z,7.37
2019-05-16T06:01:20.779Z,10.17
2019-05-16T06:03:50.690Z,7.93
2019-05-16T06:06:21.064Z,7.90
2019-05-16T06:08:50.577Z,8.90
2019-05-16T06:11:20.485Z,10.07
2019-05-16T06:14:15.751Z,9.47
2019-05-16T06:16:45.558Z,11.10
2019-05-16T06:19:14.808Z,9.30
2019-05-16T06:21:45.375Z,8.43
2019-05-16T06:24:16.289Z,8.20
2019-05-16T06:26:45.838Z,10.10
2019-05-16T06:29:15.378Z,10.03
2019-05-16T06:31:44.617Z,10.53
2019-05-16T06:34:32.950Z,9.93
2019-05-16T06:37:02.219Z,8.70
2019-05-16T06:39:41.628Z,7.67
2019-05-16T06:42:02.282Z,10.53
2019-05-16T06:44:31.872Z,9.43
2019-05-16T06:47:15.842Z,11.37
2019-05-16T06:49:32.376Z,10.47
2019-05-16T06:52:01.602Z,9.73
2019-05-16T06:54:31.036Z,9.07
2019-05-16T06:57:00.454Z,10.30
2019-05-16T06:59:29.980Z,9.30
2019-05-16T07:02:00.428Z,9.53
2019-05-16T07:04:30.481Z,9.67
2019-05-16T07:07:03.116Z,11.73
2019-05-16T07:09:31.118Z,9.40
2019-05-16T07:12:00.432Z,10.43
2019-05-16T07:14:31.390Z,9.87
2019-05-16T07:17:00.961Z,7.90
2019-05-16T07:19:30.282Z,7.83
2019-05-16T07:21:59.894Z,8.07
2019-05-16T07:24:30.575Z,9.57
2019-05-16T07:27:00.298Z,9.30
2019-05-16T07:29:30.821Z,9.37
2019-05-16T07:32:00.574Z,14.27
2019-05-16T07:34:31.113Z,8.50
2019-05-16T07:37:00.733Z,10.70
2019-05-16T07:39:30.707Z,7.83
2019-05-16T07:42:00.473Z,7.97
2019-05-16T07:44:30.962Z,8.33
2019-05-16T07:47:01.136Z,7.87
2019-05-16T07:49:30.619Z,8.00
2019-05-16T07:52:00.583Z,9.13
2019-05-16T07:54:30.803Z,8.40
2019-05-16T07:57:11.687Z,7.87
2019-05-16T07:59:32.254Z,6.10
2019-05-16T08:02:01.522Z,10.20
2019-05-16T08:04:31.134Z,7.90
2019-05-16T08:07:00.789Z,8.30
2019-05-16T08:09:30.605Z,7.30
2019-05-16T08:12:02.280Z,5.50
2019-05-16T08:14:34.995Z,5.43
2019-05-16T08:17:01.937Z,5.30
2019-05-16T08:19:31.446Z,8.17
2019-05-16T08:22:01.437Z,8.50
2019-05-16T08:27:01.734Z,7.03
2019-05-16T08:29:31.760Z,6.33
2019-05-16T08:32:02.190Z,6.23
2019-05-16T08:34:32.353Z,4.30
2019-05-16T08:37:01.921Z,6.07
2019-05-16T08:39:31.347Z,5.37
2019-05-16T08:44:32.632Z,6.37
2019-05-16T08:47:06.028Z,5.97
2019-05-16T08:49:32.830Z,8.27
2019-05-16T08:52:02.056Z,6.50
2019-05-16T08:54:32.031Z,6.97
2019-05-16T08:57:17.396Z,5.30
2019-05-16T08:59:33.907Z,7.40
2019-05-16T09:02:03.546Z,6.23
2019-05-16T09:04:34.139Z,6.47
2019-05-16T09:07:03.745Z,5.47
2019-05-16T09:09:42.330Z,7.73
2019-05-16T09:10:21.221Z,6.53
2019-05-16T09:10:26.226Z,6.17
2019-05-16T09:12:04.197Z,7.23
2019-05-16T09:14:36.288Z,5.90
2019-05-16T09:17:07.315Z,7.07
2019-05-16T09:19:36.861Z,6.57
2019-05-16T09:22:07.430Z,5.30
2019-05-16T09:24:37.687Z,6.63
2019-05-16T09:27:12.200Z,6.50
2019-05-16T09:29:38.971Z,6.00
2019-05-16T09:32:20.331Z,5.70
2019-05-16T09:34:39.378Z,5.90
2019-05-16T09:37:08.736Z,5.93
2019-05-16T09:39:38.247Z,6.97
2019-05-16T09:42:08.305Z,5.40
2019-05-16T09:44:37.667Z,5.17
2019-05-16T09:47:07.606Z,5.33
2019-05-16T09:49:37.329Z,6.83
2019-05-16T09:52:07.482Z,7.13
2019-05-16T09:54:37.870Z,4.50
2019-05-16T09:57:07.330Z,6.77
2019-05-16T09:59:37.061Z,3.83
2019-05-16T10:02:07.384Z,8.83
2019-05-16T10:04:37.140Z,4.53
2019-05-16T10:07:06.807Z,4.57
2019-05-16T10:09:41.979Z,5.87
2019-05-16T10:12:14.998Z,3.50
2019-05-16T10:14:38.397Z,5.43
2019-05-16T10:17:08.147Z,4.07
2019-05-16T10:19:37.460Z,3.57
2019-05-16T10:22:07.394Z,4.83
2019-05-16T10:24:37.496Z,6.40
2019-05-16T10:27:07.188Z,4.37
2019-05-16T10:29:37.789Z,5.33
2019-05-16T10:32:07.905Z,6.13
2019-05-16T10:34:37.422Z,3.57
2019-05-16T10:37:06.732Z,4.93
2019-05-16T10:39:37.427Z,7.97
2019-05-16T10:42:07.006Z,3.60
2019-05-16T10:44:38.336Z,3.53
2019-05-16T10:47:07.660Z,5.30
2019-05-16T10:49:41.414Z,4.00
2019-05-16T10:52:07.852Z,3.40
2019-05-16T10:54:37.142Z,6.03
2019-05-16T10:57:08.117Z,4.13
2019-05-16T11:00:00.427Z,4.43
2019-05-16T11:02:08.207Z,3.97
2019-05-16T11:04:52.928Z,4.27
2019-05-16T11:07:08.368Z,4.37
2019-05-16T11:09:39.479Z,4.43
2019-05-16T11:12:08.537Z,4.93
2019-05-16T11:14:38.362Z,4.83
2019-05-16T11:17:12.953Z,4.00
2019-05-16T11:19:38.800Z,4.33
2019-05-16T11:22:08.040Z,3.87
2019-05-16T11:24:37.774Z,4.93
2019-05-16T11:27:07.629Z,4.63
2019-05-16T11:29:36.827Z,7.20
2019-05-16T11:32:06.882Z,5.73
2019-05-16T11:34:37.539Z,4.80
2019-05-16T11:37:07.195Z,3.90
2019-05-16T11:39:37.086Z,6.53
2019-05-16T11:42:08.138Z,5.93
2019-05-16T11:44:38.244Z,6.10
2019-05-16T11:47:08.212Z,5.93
2019-05-16T11:49:37.728Z,4.73
2019-05-16T11:52:07.561Z,4.03
2019-05-16T11:54:37.422Z,5.37
2019-05-16T11:57:07.185Z,4.33
2019-05-16T11:59:37.336Z,6.00
2019-05-16T12:02:06.918Z,4.00
2019-05-16T12:04:37.517Z,3.93
2019-05-16T12:07:07.701Z,4.87
2019-05-16T12:09:46.810Z,5.43
2019-05-16T12:12:08.921Z,3.83
2019-05-16T12:14:38.217Z,4.90
2019-05-16T12:17:07.570Z,5.90
2019-05-16T12:19:43.542Z,3.77
2019-05-16T12:22:07.855Z,6.70
2019-05-16T12:24:41.177Z,4.77
2019-05-16T12:27:08.472Z,5.63
2019-05-16T12:29:38.098Z,4.53
2019-05-16T12:32:07.970Z,4.87
2019-05-16T12:34:37.759Z,4.33
2019-05-16T12:37:07.584Z,5.77
2019-05-16T12:39:37.940Z,5.70
2019-05-16T12:42:08.504Z,7.43
2019-05-16T12:44:38.188Z,3.73
2019-05-16T12:47:07.850Z,6.20
2019-05-16T12:49:37.083Z,4.13
2019-05-16T12:52:06.928Z,4.63
2019-05-16T12:54:37.130Z,5.27
2019-05-16T12:57:06.695Z,4.57
2019-05-16T12:59:36.832Z,5.27
2019-05-16T13:02:07.171Z,5.63
2019-05-16T13:04:37.773Z,4.40
2019-05-16T13:07:09.342Z,4.50
2019-05-16T13:09:38.175Z,4.13
2019-05-16T13:12:07.396Z,4.50
2019-05-16T13:14:40.179Z,5.47
2019-05-16T13:17:07.576Z,4.70
2019-05-16T13:19:43.897Z,5.30
2019-05-16T13:22:07.945Z,4.57
2019-05-16T13:24:38.534Z,4.67
2019-05-16T13:27:08.429Z,6.83
2019-05-16T13:29:37.897Z,5.83
2019-05-16T13:32:07.827Z,5.43
2019-05-16T13:34:38.017Z,5.33
2019-05-16T13:37:08.014Z,6.97
2019-05-16T13:39:37.188Z,6.17
2019-05-16T13:42:07.993Z,5.13
2019-05-16T13:44:37.771Z,5.87
2019-05-16T13:47:07.653Z,6.03
2019-05-16T13:49:38.523Z,4.33
2019-05-16T13:52:08.094Z,6.67
2019-05-16T13:54:37.257Z,4.90
2019-05-16T13:57:07.061Z,4.40
2019-05-16T13:59:37.409Z,4.90
2019-05-16T14:02:08.003Z,3.80
2019-05-16T14:04:37.406Z,4.90
2019-05-16T14:07:07.757Z,8.63
2019-05-16T14:09:37.974Z,6.90
2019-05-16T14:12:07.303Z,6.90
2019-05-16T14:14:42.451Z,5.73
2019-05-16T14:17:14.270Z,6.20
2019-05-16T14:19:42.314Z,9.67
2019-05-16T14:22:11.783Z,8.53
2019-05-16T14:24:40.990Z,8.27
2019-05-16T14:27:10.210Z,7.73
2019-05-16T14:29:39.540Z,7.73
2019-05-16T14:32:10.081Z,8.10
2019-05-16T14:34:39.598Z,5.67
2019-05-16T14:37:08.774Z,6.83
2019-05-16T14:39:39.052Z,7.53
2019-05-16T14:42:08.535Z,6.10
2019-05-16T14:44:58.228Z,8.07
2019-05-16T14:47:08.958Z,6.23
2019-05-16T14:49:38.126Z,7.30
2019-05-16T14:52:07.372Z,7.47
2019-05-16T14:54:37.786Z,7.23
2019-05-16T14:57:07.164Z,7.70
2019-05-16T14:59:36.640Z,6.87
2019-05-16T15:02:07.043Z,9.20
2019-05-16T15:04:37.570Z,5.90
2019-05-16T15:07:07.213Z,6.20
2019-05-16T15:09:38.070Z,7.60
2019-05-16T15:12:07.549Z,6.97
2019-05-16T15:14:38.102Z,8.53
2019-05-16T15:17:13.528Z,9.90
2019-05-16T15:19:42.797Z,6.53
2019-05-16T15:22:12.063Z,6.50
2019-05-16T15:24:41.644Z,7.43
2019-05-16T15:27:10.895Z,5.97
2019-05-16T15:29:40.060Z,5.77
2019-05-16T15:32:09.241Z,7.60
2019-05-16T15:34:38.412Z,5.87
2019-05-16T15:37:08.157Z,6.57
2019-05-16T15:39:37.750Z,9.33
2019-05-16T15:42:08.247Z,7.03
2019-05-16T15:44:37.651Z,6.53
2019-05-16T15:47:08.130Z,10.17
2019-05-16T15:49:37.847Z,7.47
2019-05-16T15:52:07.422Z,7.77
2019-05-16T15:54:37.743Z,8.27
2019-05-16T15:57:06.987Z,8.80
2019-05-16T15:59:37.575Z,12.47
2019-05-16T16:02:07.329Z,6.77
2019-05-16T16:04:38.493Z,7.27
2019-05-16T16:07:07.947Z,7.50
2019-05-16T16:09:37.855Z,7.43
2019-05-16T16:12:10.521Z,6.27
2019-05-16T16:14:38.561Z,5.90
2019-05-16T16:17:08.892Z,8.10
2019-05-16T16:19:38.390Z,7.17
2019-05-16T16:22:07.982Z,6.73
2019-05-16T16:24:37.429Z,6.60
2019-05-16T16:27:07.451Z,6.33
2019-05-16T16:29:36.997Z,7.13
2019-05-16T16:32:06.563Z,5.93
2019-05-16T16:34:36.739Z,7.47
2019-05-16T16:37:07.532Z,7.17
2019-05-16T16:39:37.784Z,7.30
2019-05-16T16:42:07.721Z,9.30
2019-05-16T16:44:37.119Z,7.73
2019-05-16T16:47:06.719Z,9.93
2019-05-16T16:49:39.621Z,10.03
2019-05-16T16:52:07.581Z,8.43
2019-05-16T16:54:37.121Z,6.57
2019-05-16T16:57:07.729Z,5.97
2019-05-16T16:59:37.661Z,6.07
2019-05-16T17:02:06.908Z,6.40
2019-05-16T17:04:38.874Z,6.17
2019-05-16T17:07:07.331Z,7.07
2019-05-16T17:09:37.863Z,6.53
2019-05-16T17:12:07.122Z,9.30
2019-05-16T17:14:37.058Z,7.03
2019-05-16T17:17:07.234Z,7.60
2019-05-16T17:19:36.933Z,6.23
2019-05-16T17:22:17.178Z,8.53
2019-05-16T17:24:37.433Z,6.60
2019-05-16T17:27:07.734Z,5.37
2019-05-16T17:29:37.231Z,7.77
2019-05-16T17:32:10.116Z,7.07
2019-05-16T17:34:39.103Z,7.47
2019-05-16T17:37:09.672Z,10.60
2019-05-16T17:39:39.046Z,9.57
2019-05-16T17:42:08.306Z,7.13
2019-05-16T17:44:37.566Z,6.03
2019-05-16T17:47:07.182Z,6.97
2019-05-16T17:49:37.266Z,5.23
2019-05-16T17:52:07.068Z,5.87
2019-05-16T17:54:37.274Z,6.30
2019-05-16T17:57:08.092Z,11.57
2019-05-16T17:59:37.974Z,6.70
2019-05-16T18:02:07.927Z,5.97
2019-05-16T18:04:38.284Z,10.93
2019-05-16T18:07:08.106Z,8.07
2019-05-16T18:09:37.472Z,6.63
2019-05-16T18:12:07.189Z,5.93
2019-05-16T18:14:37.327Z,6.20
2019-05-16T18:17:07.559Z,7.47
2019-05-16T18:19:37.359Z,8.70
2019-05-16T18:22:06.797Z,6.57
2019-05-16T18:24:36.980Z,9.57
2019-05-16T18:27:06.813Z,8.03
2019-05-16T18:29:36.615Z,7.30
2019-05-16T18:32:07.021Z,7.40
2019-05-16T18:34:37.667Z,7.97
2019-05-16T18:37:07.075Z,7.53
2019-05-16T18:39:36.896Z,5.23
2019-05-16T18:42:06.436Z,6.17
2019-05-16T18:44:37.582Z,8.33
2019-05-16T18:47:11.128Z,6.57
2019-05-16T18:49:38.093Z,5.53
2019-05-16T18:52:07.594Z,4.90
2019-05-16T18:54:37.695Z,5.77
2019-05-16T18:57:07.235Z,5.43
2019-05-16T18:59:36.882Z,5.10
2019-05-16T19:02:09.783Z,6.13
2019-05-16T19:04:37.908Z,7.37
2019-05-16T19:07:08.070Z,6.30
2019-05-16T19:09:37.549Z,7.80
2019-05-16T19:12:07.020Z,5.50
2019-05-16T19:14:36.867Z,4.97
2019-05-16T19:17:20.317Z,8.17
2019-05-16T19:19:38.684Z,9.23
2019-05-16T19:22:08.566Z,5.50
2019-05-16T19:24:37.794Z,5.13
2019-05-16T19:27:07.469Z,7.63
2019-05-16T19:29:37.983Z,6.53
2019-05-16T19:32:07.471Z,7.83
2019-05-16T19:34:36.673Z,7.27
2019-05-16T19:37:07.017Z,7.50
2019-05-16T19:39:37.187Z,5.37
2019-05-16T19:42:07.129Z,6.50
2019-05-16T19:44:37.082Z,6.23
2019-05-16T19:47:07.278Z,6.10
2019-05-16T19:49:37.004Z,7.77
2019-05-16T19:52:07.236Z,5.17
2019-05-16T19:54:36.630Z,8.83
2019-05-16T19:57:07.310Z,6.43
2019-05-16T19:59:36.841Z,8.23
2019-05-16T20:02:07.700Z,7.80
2019-05-16T20:04:39.253Z,6.17
2019-05-16T20:07:08.495Z,5.40
2019-05-16T20:09:37.765Z,7.23
2019-05-16T20:12:07.797Z,6.03
2019-05-16T20:14:37.608Z,8.50
2019-05-16T20:17:07.369Z,7.73
2019-05-16T20:19:37.281Z,8.87
2019-05-16T20:22:07.738Z,5.77
2019-05-16T20:24:37.251Z,7.77
2019-05-16T20:27:08.038Z,6.50
2019-05-16T20:29:37.404Z,6.03
2019-05-16T20:32:07.781Z,6.93
2019-05-16T20:34:38.539Z,6.03
2019-05-16T20:37:09.338Z,7.17
2019-05-16T20:39:38.717Z,6.27
2019-05-16T20:42:07.947Z,8.20
2019-05-16T20:44:37.486Z,9.30
2019-05-16T20:47:07.170Z,6.97
2019-05-16T20:49:37.466Z,8.57
2019-05-16T20:52:07.179Z,7.27
2019-05-16T20:54:37.649Z,6.77
2019-05-16T20:57:07.373Z,6.60
2019-05-16T20:59:36.721Z,8.37
2019-05-16T21:02:06.971Z,6.70
2019-05-16T21:04:37.452Z,6.37
2019-05-16T21:07:10.874Z,6.90
2019-05-16T21:09:38.455Z,6.57
2019-05-16T21:12:08.369Z,8.80
2019-05-16T21:14:37.674Z,8.63
2019-05-16T21:17:07.378Z,8.67
2019-05-16T21:19:39.188Z,6.77
2019-05-16T21:22:08.059Z,7.47
2019-05-16T21:24:39.661Z,10.30
2019-05-16T21:27:11.691Z,8.37
2019-05-16T21:29:44.427Z,7.47
2019-05-16T21:32:12.361Z,8.50
2019-05-16T21:34:41.524Z,7.10
2019-05-16T21:37:16.962Z,10.07
2019-05-16T21:39:41.735Z,8.43
2019-05-16T21:42:11.294Z,9.13
2019-05-16T21:44:40.980Z,7.10
2019-05-16T21:47:10.152Z,7.70
2019-05-16T21:49:39.384Z,8.70
2019-05-16T21:52:08.730Z,7.30
2019-05-16T21:54:37.964Z,7.67
2019-05-16T21:57:07.606Z,8.67
2019-05-16T21:59:37.535Z,6.73
2019-05-16T22:02:07.462Z,5.70
2019-05-16T22:04:36.956Z,8.43
2019-05-16T22:07:07.196Z,6.97
2019-05-16T22:09:37.193Z,8.93
2019-05-16T22:12:07.139Z,7.43
2019-05-16T22:14:43.249Z,8.27
2019-05-16T22:17:12.999Z,6.57
2019-05-16T22:19:42.496Z,7.70
2019-05-16T22:22:11.956Z,8.37
2019-05-16T22:24:41.328Z,12.67
2019-05-16T22:27:11.202Z,10.83
2019-05-16T22:29:40.694Z,8.97
2019-05-16T22:32:10.010Z,8.77
2019-05-16T22:34:39.253Z,10.20
2019-05-16T22:37:08.809Z,10.20
2019-05-16T22:39:38.048Z,9.20
2019-05-16T22:42:09.420Z,7.27
2019-05-16T22:44:38.250Z,7.23
2019-05-16T22:47:07.475Z,8.77
2019-05-16T22:49:37.061Z,8.43
2019-05-16T22:52:06.770Z,8.20
2019-05-16T22:54:37.119Z,7.60
2019-05-16T22:57:06.763Z,8.90
2019-05-16T22:59:36.501Z,9.33
2019-05-16T23:02:11.476Z,8.07
2019-05-16T23:04:38.429Z,6.83
2019-05-16T23:07:08.227Z,8.40
2019-05-16T23:09:37.815Z,9.80
2019-05-16T23:12:07.180Z,8.90
2019-05-16T23:14:36.496Z,7.43
2019-05-16T23:17:06.679Z,8.43
2019-05-16T23:19:36.709Z,7.73
2019-05-16T23:22:07.627Z,8.10
2019-05-16T23:24:37.184Z,9.53
2019-05-16T23:27:06.980Z,9.30
2019-05-16T23:29:36.774Z,9.60
2019-05-16T23:32:07.350Z,10.43
2019-05-16T23:34:37.323Z,10.40
2019-05-16T23:37:06.856Z,14.00
2019-05-16T23:39:37.908Z,11.20
2019-05-16T23:42:07.235Z,12.30
2019-05-16T23:44:36.743Z,12.37
2019-05-16T23:47:07.089Z,12.70
2019-05-16T23:49:36.960Z,14.77
2019-05-16T23:52:07.514Z,13.30
2019-05-16T23:54:36.957Z,13.23
2019-05-16T23:57:06.815Z,15.37
2019-05-16T23:59:36.850Z,15.77
